sensor_id;sensor_type;location;lat;lon;timestamp;P1;durP1;ratioP1;P2;durP2;ratioP2
2710;SDS011;20721;47.402;8.550;2023-07-20T00:00:27;3.11;;;3.11;;
2710;SDS011;20721;47.402;8.550;2023-07-20T00:02:26;3.86;;;3.86;;
2710;SDS011;20721;47.402;8.550;2023-07-20T00:04:16;3.83;;;3.80;;
2710;SDS011;20721;47.402;8.550;2023-07-20T00:07:15;3.63;;;3.63;;
2710;SDS011;20721;47.402;8.550;2023-07-20T00:09:16;3.71;;;3.71;;
2710;SDS011;20721;47.402;8.550;2023-07-20T00:12:16;4.03;;;4.03;;
2710;SDS011;20721;47.402;8.550;2023-07-20T00:14:16;3.59;;;3.59;;
2710;SDS011;20721;47.402;8.550;2023-07-20T00:16:16;3.45;;;3.45;;
2710;SDS011;20721;47.402;8.550;2023-07-20T00:18:16;3.74;;;3.74;;
2710;SDS011;20721;47.402;8.550;2023-07-20T00:20:16;3.86;;;3.86;;
2710;SDS011;20721;47.402;8.550;2023-07-20T00:22:16;3.73;;;3.73;;
2710;SDS011;20721;47.402;8.550;2023-07-20T00:24:16;3.59;;;3.59;;
2710;SDS011;20721;47.402;8.550;2023-07-20T00:28:16;3.29;;;3.29;;
2710;SDS011;20721;47.402;8.550;2023-07-20T00:30:16;2.99;;;2.99;;
2710;SDS011;20721;47.402;8.550;2023-07-20T00:33:19;3.28;;;3.28;;
2710;SDS011;20721;47.402;8.550;2023-07-20T00:35:16;2.79;;;2.79;;
2710;SDS011;20721;47.402;8.550;2023-07-20T00:37:16;3.00;;;3.00;;
2710;SDS011;20721;47.402;8.550;2023-07-20T00:40:17;2.48;;;2.48;;
2710;SDS011;20721;47.402;8.550;2023-07-20T00:43:16;3.41;;;3.41;;
2710;SDS011;20721;47.402;8.550;2023-07-20T00:45:16;3.64;;;3.64;;
2710;SDS011;20721;47.402;8.550;2023-07-20T00:48:16;3.00;;;3.00;;
2710;SDS011;20721;47.402;8.550;2023-07-20T00:50:16;3.56;;;3.56;;
2710;SDS011;20721;47.402;8.550;2023-07-20T00:52:16;2.94;;;2.94;;
2710;SDS011;20721;47.402;8.550;2023-07-20T00:55:18;2.96;;;2.96;;
2710;SDS011;20721;47.402;8.550;2023-07-20T00:57:17;2.98;;;2.98;;
2710;SDS011;20721;47.402;8.550;2023-07-20T01:00:17;3.35;;;3.35;;
2710;SDS011;20721;47.402;8.550;2023-07-20T01:02:16;3.00;;;3.00;;
2710;SDS011;20721;47.402;8.550;2023-07-20T01:05:17;3.43;;;3.43;;
2710;SDS011;20721;47.402;8.550;2023-07-20T01:07:31;3.12;;;3.12;;
2710;SDS011;20721;47.402;8.550;2023-07-20T01:10:23;2.75;;;2.75;;
2710;SDS011;20721;47.402;8.550;2023-07-20T01:14:16;3.07;;;3.07;;
2710;SDS011;20721;47.402;8.550;2023-07-20T01:17:16;2.92;;;2.92;;
2710;SDS011;20721;47.402;8.550;2023-07-20T01:21:24;2.90;;;2.90;;
2710;SDS011;20721;47.402;8.550;2023-07-20T01:24:24;2.51;;;2.51;;
2710;SDS011;20721;47.402;8.550;2023-07-20T01:33:17;2.82;;;2.82;;
2710;SDS011;20721;47.402;8.550;2023-07-20T01:35:17;2.97;;;2.97;;
2710;SDS011;20721;47.402;8.550;2023-07-20T01:37:16;3.05;;;3.05;;
2710;SDS011;20721;47.402;8.550;2023-07-20T01:40:16;2.87;;;2.87;;
2710;SDS011;20721;47.402;8.550;2023-07-20T01:44:16;2.13;;;2.13;;
2710;SDS011;20721;47.402;8.550;2023-07-20T01:46:16;2.44;;;2.44;;
2710;SDS011;20721;47.402;8.550;2023-07-20T01:48:16;2.71;;;2.71;;
2710;SDS011;20721;47.402;8.550;2023-07-20T01:50:16;2.49;;;2.49;;
2710;SDS011;20721;47.402;8.550;2023-07-20T01:53:16;2.30;;;2.30;;
2710;SDS011;20721;47.402;8.550;2023-07-20T01:55:16;2.22;;;2.22;;
2710;SDS011;20721;47.402;8.550;2023-07-20T01:57:16;2.33;;;2.33;;
2710;SDS011;20721;47.402;8.550;2023-07-20T02:00:19;2.47;;;2.47;;
2710;SDS011;20721;47.402;8.550;2023-07-20T02:03:16;2.58;;;2.58;;
2710;SDS011;20721;47.402;8.550;2023-07-20T02:06:16;2.14;;;2.14;;
2710;SDS011;20721;47.402;8.550;2023-07-20T02:08:16;2.12;;;2.12;;
2710;SDS011;20721;47.402;8.550;2023-07-20T02:10:16;2.70;;;2.70;;
2710;SDS011;20721;47.402;8.550;2023-07-20T02:12:16;2.43;;;2.43;;
2710;SDS011;20721;47.402;8.550;2023-07-20T02:14:16;2.46;;;2.46;;
2710;SDS011;20721;47.402;8.550;2023-07-20T02:17:16;2.24;;;2.24;;
2710;SDS011;20721;47.402;8.550;2023-07-20T02:19:17;2.82;;;2.82;;
2710;SDS011;20721;47.402;8.550;2023-07-20T02:21:16;2.23;;;2.23;;
2710;SDS011;20721;47.402;8.550;2023-07-20T02:23:16;2.80;;;2.80;;
2710;SDS011;20721;47.402;8.550;2023-07-20T02:25:17;2.76;;;2.76;;
2710;SDS011;20721;47.402;8.550;2023-07-20T02:28:17;2.21;;;2.21;;
2710;SDS011;20721;47.402;8.550;2023-07-20T02:31:16;2.64;;;2.64;;
2710;SDS011;20721;47.402;8.550;2023-07-20T02:33:17;2.24;;;2.24;;
2710;SDS011;20721;47.402;8.550;2023-07-20T02:38:17;2.62;;;2.62;;
2710;SDS011;20721;47.402;8.550;2023-07-20T02:40:17;1.85;;;1.85;;
2710;SDS011;20721;47.402;8.550;2023-07-20T02:43:16;2.69;;;2.69;;
2710;SDS011;20721;47.402;8.550;2023-07-20T02:45:16;2.12;;;2.12;;
2710;SDS011;20721;47.402;8.550;2023-07-20T02:47:16;2.35;;;2.35;;
2710;SDS011;20721;47.402;8.550;2023-07-20T02:49:16;2.62;;;2.62;;
2710;SDS011;20721;47.402;8.550;2023-07-20T02:52:16;1.89;;;1.89;;
2710;SDS011;20721;47.402;8.550;2023-07-20T02:54:16;1.80;;;1.80;;
2710;SDS011;20721;47.402;8.550;2023-07-20T02:56:16;2.29;;;2.29;;
2710;SDS011;20721;47.402;8.550;2023-07-20T02:58:16;2.22;;;2.22;;
2710;SDS011;20721;47.402;8.550;2023-07-20T03:00:17;2.08;;;2.08;;
2710;SDS011;20721;47.402;8.550;2023-07-20T03:02:19;2.58;;;2.58;;
2710;SDS011;20721;47.402;8.550;2023-07-20T03:04:17;2.08;;;2.08;;
2710;SDS011;20721;47.402;8.550;2023-07-20T03:06:18;2.38;;;2.38;;
2710;SDS011;20721;47.402;8.550;2023-07-20T03:08:16;2.55;;;2.55;;
2710;SDS011;20721;47.402;8.550;2023-07-20T03:10:19;2.16;;;2.16;;
2710;SDS011;20721;47.402;8.550;2023-07-20T03:12:17;2.05;;;2.05;;
2710;SDS011;20721;47.402;8.550;2023-07-20T03:14:16;2.54;;;2.54;;
2710;SDS011;20721;47.402;8.550;2023-07-20T03:16:23;2.16;;;2.16;;
2710;SDS011;20721;47.402;8.550;2023-07-20T03:18:16;1.94;;;1.94;;
2710;SDS011;20721;47.402;8.550;2023-07-20T03:20:19;1.85;;;1.85;;
2710;SDS011;20721;47.402;8.550;2023-07-20T03:22:16;2.19;;;2.19;;
2710;SDS011;20721;47.402;8.550;2023-07-20T03:24:17;1.96;;;1.96;;
2710;SDS011;20721;47.402;8.550;2023-07-20T03:26:19;2.12;;;2.12;;
2710;SDS011;20721;47.402;8.550;2023-07-20T03:28:16;2.21;;;2.21;;
2710;SDS011;20721;47.402;8.550;2023-07-20T03:30:17;2.00;;;2.00;;
2710;SDS011;20721;47.402;8.550;2023-07-20T03:32:16;1.85;;;1.85;;
2710;SDS011;20721;47.402;8.550;2023-07-20T03:34:18;1.87;;;1.87;;
2710;SDS011;20721;47.402;8.550;2023-07-20T03:36:16;2.09;;;2.09;;
2710;SDS011;20721;47.402;8.550;2023-07-20T03:38:16;2.31;;;2.31;;
2710;SDS011;20721;47.402;8.550;2023-07-20T03:41:16;1.96;;;1.96;;
2710;SDS011;20721;47.402;8.550;2023-07-20T03:43:16;2.37;;;2.37;;
2710;SDS011;20721;47.402;8.550;2023-07-20T03:45:16;2.07;;;2.07;;
2710;SDS011;20721;47.402;8.550;2023-07-20T03:47:16;2.21;;;2.21;;
2710;SDS011;20721;47.402;8.550;2023-07-20T03:49:16;2.12;;;2.12;;
2710;SDS011;20721;47.402;8.550;2023-07-20T03:52:16;2.13;;;2.13;;
2710;SDS011;20721;47.402;8.550;2023-07-20T03:55:16;1.80;;;1.80;;
2710;SDS011;20721;47.402;8.550;2023-07-20T03:57:17;2.21;;;2.21;;
2710;SDS011;20721;47.402;8.550;2023-07-20T03:59:16;1.77;;;1.77;;
2710;SDS011;20721;47.402;8.550;2023-07-20T04:01:17;2.09;;;2.09;;
2710;SDS011;20721;47.402;8.550;2023-07-20T04:03:17;1.99;;;1.99;;
2710;SDS011;20721;47.402;8.550;2023-07-20T04:07:17;2.03;;;2.03;;
2710;SDS011;20721;47.402;8.550;2023-07-20T04:09:16;2.43;;;2.43;;
2710;SDS011;20721;47.402;8.550;2023-07-20T04:11:16;2.66;;;2.66;;
2710;SDS011;20721;47.402;8.550;2023-07-20T04:13:17;2.14;;;2.14;;
2710;SDS011;20721;47.402;8.550;2023-07-20T04:18:16;1.90;;;1.90;;
2710;SDS011;20721;47.402;8.550;2023-07-20T04:20:17;1.84;;;1.84;;
2710;SDS011;20721;47.402;8.550;2023-07-20T04:22:16;1.99;;;1.99;;
2710;SDS011;20721;47.402;8.550;2023-07-20T04:24:16;2.26;;;2.26;;
2710;SDS011;20721;47.402;8.550;2023-07-20T04:27:16;2.02;;;2.02;;
2710;SDS011;20721;47.402;8.550;2023-07-20T04:30:17;2.17;;;2.17;;
2710;SDS011;20721;47.402;8.550;2023-07-20T04:32:16;2.32;;;2.32;;
2710;SDS011;20721;47.402;8.550;2023-07-20T04:35:45;2.07;;;2.07;;
2710;SDS011;20721;47.402;8.550;2023-07-20T04:37:16;2.26;;;2.26;;
2710;SDS011;20721;47.402;8.550;2023-07-20T04:39:27;2.35;;;2.35;;
2710;SDS011;20721;47.402;8.550;2023-07-20T04:41:16;2.49;;;2.49;;
2710;SDS011;20721;47.402;8.550;2023-07-20T04:44:16;2.51;;;2.51;;
2710;SDS011;20721;47.402;8.550;2023-07-20T04:46:16;2.08;;;2.08;;
2710;SDS011;20721;47.402;8.550;2023-07-20T04:50:16;2.39;;;2.39;;
2710;SDS011;20721;47.402;8.550;2023-07-20T04:52:16;2.11;;;2.11;;
2710;SDS011;20721;47.402;8.550;2023-07-20T04:54:16;2.41;;;2.41;;
2710;SDS011;20721;47.402;8.550;2023-07-20T04:56:16;1.87;;;1.87;;
2710;SDS011;20721;47.402;8.550;2023-07-20T04:58:17;1.93;;;1.93;;
2710;SDS011;20721;47.402;8.550;2023-07-20T05:00:17;2.27;;;2.27;;
2710;SDS011;20721;47.402;8.550;2023-07-20T05:02:16;1.76;;;1.76;;
2710;SDS011;20721;47.402;8.550;2023-07-20T05:05:17;1.90;;;1.90;;
2710;SDS011;20721;47.402;8.550;2023-07-20T05:07:16;2.14;;;2.14;;
2710;SDS011;20721;47.402;8.550;2023-07-20T05:09:18;2.33;;;2.33;;
2710;SDS011;20721;47.402;8.550;2023-07-20T05:11:17;2.51;;;2.51;;
2710;SDS011;20721;47.402;8.550;2023-07-20T05:13:16;2.11;;;2.11;;
2710;SDS011;20721;47.402;8.550;2023-07-20T05:16:17;1.98;;;1.98;;
2710;SDS011;20721;47.402;8.550;2023-07-20T05:19:16;2.30;;;2.30;;
2710;SDS011;20721;47.402;8.550;2023-07-20T05:22:16;2.15;;;2.15;;
2710;SDS011;20721;47.402;8.550;2023-07-20T05:24:16;2.61;;;2.61;;
2710;SDS011;20721;47.402;8.550;2023-07-20T05:26:16;2.03;;;2.03;;
2710;SDS011;20721;47.402;8.550;2023-07-20T05:28:16;2.31;;;2.31;;
2710;SDS011;20721;47.402;8.550;2023-07-20T05:30:17;2.26;;;2.26;;
2710;SDS011;20721;47.402;8.550;2023-07-20T05:32:17;2.38;;;2.38;;
2710;SDS011;20721;47.402;8.550;2023-07-20T05:34:16;2.50;;;2.50;;
2710;SDS011;20721;47.402;8.550;2023-07-20T05:36:16;2.58;;;2.58;;
2710;SDS011;20721;47.402;8.550;2023-07-20T05:39:16;2.27;;;2.27;;
2710;SDS011;20721;47.402;8.550;2023-07-20T05:41:20;2.24;;;2.24;;
2710;SDS011;20721;47.402;8.550;2023-07-20T05:43:17;2.33;;;2.33;;
2710;SDS011;20721;47.402;8.550;2023-07-20T05:45:17;2.36;;;2.36;;
2710;SDS011;20721;47.402;8.550;2023-07-20T05:47:17;2.50;;;2.50;;
2710;SDS011;20721;47.402;8.550;2023-07-20T05:49:16;2.19;;;2.19;;
2710;SDS011;20721;47.402;8.550;2023-07-20T05:51:16;2.39;;;2.39;;
2710;SDS011;20721;47.402;8.550;2023-07-20T05:53:17;2.12;;;2.12;;
2710;SDS011;20721;47.402;8.550;2023-07-20T05:55:17;2.62;;;2.62;;
2710;SDS011;20721;47.402;8.550;2023-07-20T05:57:17;2.69;;;2.69;;
2710;SDS011;20721;47.402;8.550;2023-07-20T05:59:16;2.56;;;2.56;;
2710;SDS011;20721;47.402;8.550;2023-07-20T06:01:16;2.73;;;2.73;;
2710;SDS011;20721;47.402;8.550;2023-07-20T06:03:16;2.87;;;2.87;;
2710;SDS011;20721;47.402;8.550;2023-07-20T06:05:19;3.04;;;3.04;;
2710;SDS011;20721;47.402;8.550;2023-07-20T06:07:17;2.61;;;2.61;;
2710;SDS011;20721;47.402;8.550;2023-07-20T06:09:21;2.96;;;2.96;;
2710;SDS011;20721;47.402;8.550;2023-07-20T06:11:16;2.88;;;2.88;;
2710;SDS011;20721;47.402;8.550;2023-07-20T06:13:16;2.82;;;2.82;;
2710;SDS011;20721;47.402;8.550;2023-07-20T06:15:33;2.82;;;2.82;;
2710;SDS011;20721;47.402;8.550;2023-07-20T06:17:16;2.66;;;2.66;;
2710;SDS011;20721;47.402;8.550;2023-07-20T06:19:17;2.61;;;2.61;;
2710;SDS011;20721;47.402;8.550;2023-07-20T06:21:16;2.58;;;2.58;;
2710;SDS011;20721;47.402;8.550;2023-07-20T06:23:18;3.04;;;3.04;;
2710;SDS011;20721;47.402;8.550;2023-07-20T06:25:17;3.05;;;3.05;;
2710;SDS011;20721;47.402;8.550;2023-07-20T06:27:16;3.06;;;3.06;;
2710;SDS011;20721;47.402;8.550;2023-07-20T06:29:16;2.86;;;2.86;;
2710;SDS011;20721;47.402;8.550;2023-07-20T06:31:17;3.36;;;3.36;;
2710;SDS011;20721;47.402;8.550;2023-07-20T06:33:17;2.92;;;2.92;;
2710;SDS011;20721;47.402;8.550;2023-07-20T06:35:17;3.58;;;3.58;;
2710;SDS011;20721;47.402;8.550;2023-07-20T06:37:16;2.98;;;2.98;;
2710;SDS011;20721;47.402;8.550;2023-07-20T06:39:19;3.37;;;3.37;;
2710;SDS011;20721;47.402;8.550;2023-07-20T06:41:19;3.13;;;3.13;;
2710;SDS011;20721;47.402;8.550;2023-07-20T06:43:20;2.92;;;2.92;;
2710;SDS011;20721;47.402;8.550;2023-07-20T06:45:17;3.24;;;3.24;;
2710;SDS011;20721;47.402;8.550;2023-07-20T06:47:17;2.88;;;2.88;;
2710;SDS011;20721;47.402;8.550;2023-07-20T06:49:28;2.97;;;2.97;;
2710;SDS011;20721;47.402;8.550;2023-07-20T06:52:17;3.10;;;3.10;;
2710;SDS011;20721;47.402;8.550;2023-07-20T06:54:17;2.89;;;2.89;;
2710;SDS011;20721;47.402;8.550;2023-07-20T06:56:17;2.90;;;2.90;;
2710;SDS011;20721;47.402;8.550;2023-07-20T06:58:17;3.09;;;3.09;;
2710;SDS011;20721;47.402;8.550;2023-07-20T07:00:17;3.28;;;3.28;;
2710;SDS011;20721;47.402;8.550;2023-07-20T07:02:17;3.61;;;3.61;;
2710;SDS011;20721;47.402;8.550;2023-07-20T07:04:17;3.55;;;3.55;;
2710;SDS011;20721;47.402;8.550;2023-07-20T07:06:17;3.07;;;3.07;;
2710;SDS011;20721;47.402;8.550;2023-07-20T07:08:17;3.23;;;3.23;;
2710;SDS011;20721;47.402;8.550;2023-07-20T07:11:17;3.16;;;3.16;;
2710;SDS011;20721;47.402;8.550;2023-07-20T07:13:17;3.07;;;3.07;;
2710;SDS011;20721;47.402;8.550;2023-07-20T07:15:17;3.05;;;3.05;;
2710;SDS011;20721;47.402;8.550;2023-07-20T07:17:17;3.47;;;3.47;;
2710;SDS011;20721;47.402;8.550;2023-07-20T07:19:18;3.60;;;3.60;;
2710;SDS011;20721;47.402;8.550;2023-07-20T07:21:17;3.27;;;3.27;;
2710;SDS011;20721;47.402;8.550;2023-07-20T07:23:17;3.27;;;3.27;;
2710;SDS011;20721;47.402;8.550;2023-07-20T07:25:17;3.24;;;3.24;;
2710;SDS011;20721;47.402;8.550;2023-07-20T07:27:18;3.44;;;3.44;;
2710;SDS011;20721;47.402;8.550;2023-07-20T07:30:17;3.33;;;3.33;;
2710;SDS011;20721;47.402;8.550;2023-07-20T07:32:17;3.02;;;3.02;;
2710;SDS011;20721;47.402;8.550;2023-07-20T07:34:17;3.79;;;3.79;;
2710;SDS011;20721;47.402;8.550;2023-07-20T07:36:17;3.59;;;3.59;;
2710;SDS011;20721;47.402;8.550;2023-07-20T07:38:28;3.32;;;3.32;;
2710;SDS011;20721;47.402;8.550;2023-07-20T07:40:18;3.26;;;3.26;;
2710;SDS011;20721;47.402;8.550;2023-07-20T07:42:17;3.50;;;3.50;;
2710;SDS011;20721;47.402;8.550;2023-07-20T07:44:17;3.19;;;3.19;;
2710;SDS011;20721;47.402;8.550;2023-07-20T07:46:17;3.46;;;3.46;;
2710;SDS011;20721;47.402;8.550;2023-07-20T07:48:17;3.42;;;3.42;;
2710;SDS011;20721;47.402;8.550;2023-07-20T07:50:17;3.59;;;3.59;;
2710;SDS011;20721;47.402;8.550;2023-07-20T07:52:17;3.17;;;3.17;;
2710;SDS011;20721;47.402;8.550;2023-07-20T07:54:17;2.93;;;2.93;;
2710;SDS011;20721;47.402;8.550;2023-07-20T07:56:17;3.04;;;3.04;;
2710;SDS011;20721;47.402;8.550;2023-07-20T07:58:17;2.81;;;2.81;;
2710;SDS011;20721;47.402;8.550;2023-07-20T08:00:21;2.84;;;2.84;;
2710;SDS011;20721;47.402;8.550;2023-07-20T08:02:17;2.76;;;2.76;;
2710;SDS011;20721;47.402;8.550;2023-07-20T08:04:17;3.23;;;3.23;;
2710;SDS011;20721;47.402;8.550;2023-07-20T08:06:17;2.92;;;2.92;;
2710;SDS011;20721;47.402;8.550;2023-07-20T08:08:18;3.17;;;3.17;;
2710;SDS011;20721;47.402;8.550;2023-07-20T08:11:18;3.04;;;3.04;;
2710;SDS011;20721;47.402;8.550;2023-07-20T08:13:17;3.06;;;3.06;;
2710;SDS011;20721;47.402;8.550;2023-07-20T08:15:17;2.52;;;2.52;;
2710;SDS011;20721;47.402;8.550;2023-07-20T08:17:17;2.55;;;2.55;;
2710;SDS011;20721;47.402;8.550;2023-07-20T08:20:19;2.78;;;2.78;;
2710;SDS011;20721;47.402;8.550;2023-07-20T08:22:17;3.37;;;3.37;;
2710;SDS011;20721;47.402;8.550;2023-07-20T08:24:17;2.71;;;2.71;;
2710;SDS011;20721;47.402;8.550;2023-07-20T08:26:17;2.68;;;2.68;;
2710;SDS011;20721;47.402;8.550;2023-07-20T08:28:17;2.49;;;2.49;;
2710;SDS011;20721;47.402;8.550;2023-07-20T08:30:20;2.14;;;2.14;;
2710;SDS011;20721;47.402;8.550;2023-07-20T08:32:17;2.31;;;2.31;;
2710;SDS011;20721;47.402;8.550;2023-07-20T08:34:27;2.38;;;2.38;;
2710;SDS011;20721;47.402;8.550;2023-07-20T08:36:17;2.49;;;2.49;;
2710;SDS011;20721;47.402;8.550;2023-07-20T08:38:17;1.94;;;1.94;;
2710;SDS011;20721;47.402;8.550;2023-07-20T08:40:19;1.90;;;1.90;;
2710;SDS011;20721;47.402;8.550;2023-07-20T08:42:17;2.61;;;2.61;;
2710;SDS011;20721;47.402;8.550;2023-07-20T08:44:18;2.36;;;2.36;;
2710;SDS011;20721;47.402;8.550;2023-07-20T08:46:17;2.40;;;2.40;;
2710;SDS011;20721;47.402;8.550;2023-07-20T08:48:18;2.11;;;2.11;;
2710;SDS011;20721;47.402;8.550;2023-07-20T08:50:17;2.07;;;2.07;;
2710;SDS011;20721;47.402;8.550;2023-07-20T08:52:17;2.26;;;2.26;;
2710;SDS011;20721;47.402;8.550;2023-07-20T08:54:19;2.36;;;2.36;;
2710;SDS011;20721;47.402;8.550;2023-07-20T08:56:19;2.21;;;2.21;;
2710;SDS011;20721;47.402;8.550;2023-07-20T08:58:18;2.01;;;2.01;;
2710;SDS011;20721;47.402;8.550;2023-07-20T09:00:24;2.18;;;2.17;;
2710;SDS011;20721;47.402;8.550;2023-07-20T09:02:18;2.24;;;2.24;;
2710;SDS011;20721;47.402;8.550;2023-07-20T09:04:17;2.21;;;2.21;;
2710;SDS011;20721;47.402;8.550;2023-07-20T09:07:19;2.05;;;2.05;;
2710;SDS011;20721;47.402;8.550;2023-07-20T09:09:17;2.31;;;2.31;;
2710;SDS011;20721;47.402;8.550;2023-07-20T09:11:17;2.14;;;2.14;;
2710;SDS011;20721;47.402;8.550;2023-07-20T09:13:19;2.15;;;2.15;;
2710;SDS011;20721;47.402;8.550;2023-07-20T09:15:18;2.03;;;2.03;;
2710;SDS011;20721;47.402;8.550;2023-07-20T09:17:22;2.14;;;2.14;;
2710;SDS011;20721;47.402;8.550;2023-07-20T09:19:19;2.53;;;2.53;;
2710;SDS011;20721;47.402;8.550;2023-07-20T09:21:17;2.44;;;2.44;;
2710;SDS011;20721;47.402;8.550;2023-07-20T09:23:17;2.17;;;2.17;;
2710;SDS011;20721;47.402;8.550;2023-07-20T09:25:27;2.53;;;2.53;;
2710;SDS011;20721;47.402;8.550;2023-07-20T09:27:17;2.15;;;2.15;;
2710;SDS011;20721;47.402;8.550;2023-07-20T09:29:20;2.81;;;2.81;;
2710;SDS011;20721;47.402;8.550;2023-07-20T09:31:26;2.91;;;2.91;;
2710;SDS011;20721;47.402;8.550;2023-07-20T09:33:28;2.76;;;2.76;;
2710;SDS011;20721;47.402;8.550;2023-07-20T09:35:23;2.73;;;2.73;;
2710;SDS011;20721;47.402;8.550;2023-07-20T09:38:20;3.17;;;3.17;;
2710;SDS011;20721;47.402;8.550;2023-07-20T09:40:20;2.68;;;2.68;;
2710;SDS011;20721;47.402;8.550;2023-07-20T09:42:21;2.55;;;2.55;;
2710;SDS011;20721;47.402;8.550;2023-07-20T09:44:28;2.09;;;2.09;;
2710;SDS011;20721;47.402;8.550;2023-07-20T09:46:17;2.68;;;2.68;;
2710;SDS011;20721;47.402;8.550;2023-07-20T09:48:23;2.16;;;2.16;;
2710;SDS011;20721;47.402;8.550;2023-07-20T09:50:20;2.38;;;2.38;;
2710;SDS011;20721;47.402;8.550;2023-07-20T09:52:18;2.17;;;2.17;;
2710;SDS011;20721;47.402;8.550;2023-07-20T09:54:17;2.15;;;2.15;;
2710;SDS011;20721;47.402;8.550;2023-07-20T09:56:17;2.18;;;2.18;;
2710;SDS011;20721;47.402;8.550;2023-07-20T09:58:19;2.73;;;2.73;;
2710;SDS011;20721;47.402;8.550;2023-07-20T10:00:23;2.23;;;2.23;;
2710;SDS011;20721;47.402;8.550;2023-07-20T10:02:25;2.75;;;2.75;;
2710;SDS011;20721;47.402;8.550;2023-07-20T10:04:18;2.20;;;2.20;;
2710;SDS011;20721;47.402;8.550;2023-07-20T10:06:22;2.59;;;2.59;;
2710;SDS011;20721;47.402;8.550;2023-07-20T10:08:23;2.73;;;2.73;;
2710;SDS011;20721;47.402;8.550;2023-07-20T10:10:19;2.05;;;2.05;;
2710;SDS011;20721;47.402;8.550;2023-07-20T10:12:29;2.27;;;2.27;;
2710;SDS011;20721;47.402;8.550;2023-07-20T10:14:24;2.17;;;2.17;;
2710;SDS011;20721;47.402;8.550;2023-07-20T10:16:22;2.27;;;2.27;;
2710;SDS011;20721;47.402;8.550;2023-07-20T10:18:28;2.34;;;2.34;;
2710;SDS011;20721;47.402;8.550;2023-07-20T10:20:19;1.84;;;1.84;;
2710;SDS011;20721;47.402;8.550;2023-07-20T10:22:25;2.34;;;2.34;;
2710;SDS011;20721;47.402;8.550;2023-07-20T10:24:18;1.97;;;1.97;;
2710;SDS011;20721;47.402;8.550;2023-07-20T10:26:19;2.04;;;2.04;;
2710;SDS011;20721;47.402;8.550;2023-07-20T10:28:17;2.31;;;2.31;;
2710;SDS011;20721;47.402;8.550;2023-07-20T10:30:18;2.71;;;2.71;;
2710;SDS011;20721;47.402;8.550;2023-07-20T10:32:19;2.31;;;2.31;;
2710;SDS011;20721;47.402;8.550;2023-07-20T10:34:17;2.36;;;2.36;;
2710;SDS011;20721;47.402;8.550;2023-07-20T10:36:21;2.12;;;2.12;;
2710;SDS011;20721;47.402;8.550;2023-07-20T10:38:18;2.20;;;2.20;;
2710;SDS011;20721;47.402;8.550;2023-07-20T10:40:55;2.21;;;2.21;;
2710;SDS011;20721;47.402;8.550;2023-07-20T10:42:18;3.23;;;3.23;;
2710;SDS011;20721;47.402;8.550;2023-07-20T10:44:19;2.05;;;2.05;;
2710;SDS011;20721;47.402;8.550;2023-07-20T10:48:34;2.27;;;2.27;;
2710;SDS011;20721;47.402;8.550;2023-07-20T10:50:19;2.22;;;2.22;;
2710;SDS011;20721;47.402;8.550;2023-07-20T10:52:20;2.27;;;2.27;;
2710;SDS011;20721;47.402;8.550;2023-07-20T10:56:21;2.33;;;2.33;;
2710;SDS011;20721;47.402;8.550;2023-07-20T10:58:18;2.24;;;2.24;;
2710;SDS011;20721;47.402;8.550;2023-07-20T11:00:19;2.00;;;2.00;;
2710;SDS011;20721;47.402;8.550;2023-07-20T11:02:18;2.31;;;2.31;;
2710;SDS011;20721;47.402;8.550;2023-07-20T11:04:18;2.20;;;2.20;;
2710;SDS011;20721;47.402;8.550;2023-07-20T11:06:43;2.08;;;2.08;;
2710;SDS011;20721;47.402;8.550;2023-07-20T11:10:25;2.03;;;2.03;;
2710;SDS011;20721;47.402;8.550;2023-07-20T11:12:21;2.32;;;2.32;;
2710;SDS011;20721;47.402;8.550;2023-07-20T11:14:20;2.21;;;2.21;;
2710;SDS011;20721;47.402;8.550;2023-07-20T11:16:18;2.50;;;2.50;;
2710;SDS011;20721;47.402;8.550;2023-07-20T11:18:21;2.49;;;2.49;;
2710;SDS011;20721;47.402;8.550;2023-07-20T11:20:21;2.19;;;2.19;;
2710;SDS011;20721;47.402;8.550;2023-07-20T11:22:18;2.14;;;2.14;;
2710;SDS011;20721;47.402;8.550;2023-07-20T11:24:19;2.63;;;2.63;;
2710;SDS011;20721;47.402;8.550;2023-07-20T11:26:18;2.39;;;2.39;;
2710;SDS011;20721;47.402;8.550;2023-07-20T11:28:18;2.42;;;2.42;;
2710;SDS011;20721;47.402;8.550;2023-07-20T11:30:25;2.04;;;2.04;;
2710;SDS011;20721;47.402;8.550;2023-07-20T11:32:21;2.35;;;2.35;;
2710;SDS011;20721;47.402;8.550;2023-07-20T11:34:22;2.27;;;2.27;;
2710;SDS011;20721;47.402;8.550;2023-07-20T11:36:20;2.41;;;2.41;;
2710;SDS011;20721;47.402;8.550;2023-07-20T11:38:18;1.76;;;1.76;;
2710;SDS011;20721;47.402;8.550;2023-07-20T11:40:19;1.66;;;1.66;;
2710;SDS011;20721;47.402;8.550;2023-07-20T11:42:18;2.16;;;2.16;;
2710;SDS011;20721;47.402;8.550;2023-07-20T11:44:20;2.10;;;2.10;;
2710;SDS011;20721;47.402;8.550;2023-07-20T11:46:18;2.50;;;2.50;;
2710;SDS011;20721;47.402;8.550;2023-07-20T11:48:23;2.60;;;2.60;;
2710;SDS011;20721;47.402;8.550;2023-07-20T11:50:18;2.30;;;2.30;;
2710;SDS011;20721;47.402;8.550;2023-07-20T11:52:19;2.27;;;2.27;;
2710;SDS011;20721;47.402;8.550;2023-07-20T11:54:18;2.28;;;2.28;;
2710;SDS011;20721;47.402;8.550;2023-07-20T11:56:17;2.66;;;2.66;;
2710;SDS011;20721;47.402;8.550;2023-07-20T11:58:19;2.44;;;2.44;;
2710;SDS011;20721;47.402;8.550;2023-07-20T12:00:24;2.46;;;2.46;;
2710;SDS011;20721;47.402;8.550;2023-07-20T12:02:18;2.18;;;2.18;;
2710;SDS011;20721;47.402;8.550;2023-07-20T12:04:17;2.45;;;2.45;;
2710;SDS011;20721;47.402;8.550;2023-07-20T12:06:22;2.18;;;2.18;;
2710;SDS011;20721;47.402;8.550;2023-07-20T12:08:17;2.11;;;2.11;;
2710;SDS011;20721;47.402;8.550;2023-07-20T12:10:24;2.32;;;2.32;;
2710;SDS011;20721;47.402;8.550;2023-07-20T12:12:19;1.88;;;1.88;;
2710;SDS011;20721;47.402;8.550;2023-07-20T12:14:27;2.27;;;2.27;;
2710;SDS011;20721;47.402;8.550;2023-07-20T12:16:19;2.68;;;2.68;;
2710;SDS011;20721;47.402;8.550;2023-07-20T12:18:18;1.93;;;1.93;;
2710;SDS011;20721;47.402;8.550;2023-07-20T12:20:35;2.18;;;2.18;;
2710;SDS011;20721;47.402;8.550;2023-07-20T12:22:17;2.44;;;2.44;;
2710;SDS011;20721;47.402;8.550;2023-07-20T12:25:18;2.31;;;2.31;;
2710;SDS011;20721;47.402;8.550;2023-07-20T12:27:17;2.35;;;2.35;;
2710;SDS011;20721;47.402;8.550;2023-07-20T12:29:17;2.38;;;2.38;;
2710;SDS011;20721;47.402;8.550;2023-07-20T12:31:18;2.41;;;2.41;;
2710;SDS011;20721;47.402;8.550;2023-07-20T12:33:18;2.12;;;2.12;;
2710;SDS011;20721;47.402;8.550;2023-07-20T12:35:18;2.58;;;2.58;;
2710;SDS011;20721;47.402;8.550;2023-07-20T12:37:19;2.15;;;2.15;;
2710;SDS011;20721;47.402;8.550;2023-07-20T12:39:17;2.54;;;2.54;;
2710;SDS011;20721;47.402;8.550;2023-07-20T12:41:19;2.47;;;2.47;;
2710;SDS011;20721;47.402;8.550;2023-07-20T12:43:18;2.49;;;2.49;;
2710;SDS011;20721;47.402;8.550;2023-07-20T12:45:18;1.91;;;1.91;;
2710;SDS011;20721;47.402;8.550;2023-07-20T12:47:17;1.99;;;1.99;;
2710;SDS011;20721;47.402;8.550;2023-07-20T12:49:17;2.37;;;2.37;;
2710;SDS011;20721;47.402;8.550;2023-07-20T12:51:18;2.17;;;2.17;;
2710;SDS011;20721;47.402;8.550;2023-07-20T12:53:18;2.43;;;2.43;;
2710;SDS011;20721;47.402;8.550;2023-07-20T12:55:18;2.61;;;2.61;;
2710;SDS011;20721;47.402;8.550;2023-07-20T12:57:20;2.49;;;2.49;;
2710;SDS011;20721;47.402;8.550;2023-07-20T12:59:17;2.23;;;2.23;;
2710;SDS011;20721;47.402;8.550;2023-07-20T13:01:18;2.54;;;2.54;;
2710;SDS011;20721;47.402;8.550;2023-07-20T13:03:20;2.52;;;2.52;;
2710;SDS011;20721;47.402;8.550;2023-07-20T13:05:18;2.51;;;2.51;;
2710;SDS011;20721;47.402;8.550;2023-07-20T13:07:37;2.08;;;2.08;;
2710;SDS011;20721;47.402;8.550;2023-07-20T13:09:18;2.58;;;2.58;;
2710;SDS011;20721;47.402;8.550;2023-07-20T13:11:18;2.28;;;2.28;;
2710;SDS011;20721;47.402;8.550;2023-07-20T13:13:18;2.53;;;2.53;;
2710;SDS011;20721;47.402;8.550;2023-07-20T13:17:18;2.26;;;2.26;;
2710;SDS011;20721;47.402;8.550;2023-07-20T13:19:18;2.08;;;2.08;;
2710;SDS011;20721;47.402;8.550;2023-07-20T13:21:20;2.32;;;2.32;;
2710;SDS011;20721;47.402;8.550;2023-07-20T13:23:18;2.27;;;2.27;;
2710;SDS011;20721;47.402;8.550;2023-07-20T13:25:18;2.59;;;2.59;;
2710;SDS011;20721;47.402;8.550;2023-07-20T13:27:18;2.82;;;2.82;;